createdAt,value
2018-03-20T00:00:37.752Z,19.12
2018-03-20T00:03:03.923Z,18.42
2018-03-20T00:05:30.177Z,19.25
2018-03-20T00:07:57.114Z,18.58
2018-03-20T00:10:24.061Z,17.35
2018-03-20T00:12:51.006Z,17.50
2018-03-20T00:15:17.940Z,17.55
2018-03-20T00:17:44.170Z,17.95
2018-03-20T00:20:10.334Z,17.73
2018-03-20T00:22:36.597Z,18.70
2018-03-20T00:25:02.810Z,18.75
2018-03-20T00:27:29.029Z,18.48
2018-03-20T00:29:55.246Z,18.83
2018-03-20T00:32:21.478Z,17.67
2018-03-20T00:34:47.679Z,18.77
2018-03-20T00:37:13.944Z,19.30
2018-03-20T00:39:40.181Z,17.80
2018-03-20T00:42:06.390Z,19.85
2018-03-20T00:44:32.614Z,20.12
2018-03-20T00:46:58.877Z,20.88
2018-03-20T00:49:25.111Z,19.65
2018-03-20T00:51:51.336Z,20.27
2018-03-20T00:54:17.552Z,19.00
2018-03-20T00:56:43.790Z,19.98
2018-03-20T00:59:10.012Z,18.40
2018-03-20T01:01:36.180Z,18.40
2018-03-20T01:04:02.433Z,19.20
2018-03-20T01:06:28.651Z,17.87
2018-03-20T01:08:54.852Z,17.73
2018-03-20T01:11:21.036Z,19.08
2018-03-20T01:13:47.296Z,18.37
2018-03-20T01:16:13.517Z,17.80
2018-03-20T01:18:39.755Z,17.40
2018-03-20T01:21:05.939Z,18.27
2018-03-20T01:23:32.122Z,17.23
2018-03-20T01:25:59.090Z,15.55
2018-03-20T01:28:25.282Z,16.73
2018-03-20T01:30:51.501Z,19.52
2018-03-20T01:33:17.695Z,19.15
2018-03-20T01:35:43.905Z,18.83
2018-03-20T01:38:10.161Z,17.98
2018-03-20T01:40:36.334Z,18.65
2018-03-20T01:43:03.327Z,17.85
2018-03-20T01:45:29.556Z,18.00
2018-03-20T01:47:55.743Z,18.08
2018-03-20T01:50:22.672Z,18.75
2018-03-20T01:53:01.198Z,18.20
2018-03-20T01:55:27.504Z,20.20
2018-03-20T01:57:53.684Z,18.52
2018-03-20T02:00:19.895Z,18.70
2018-03-20T02:02:46.827Z,20.58
2018-03-20T02:05:13.060Z,18.23
2018-03-20T02:07:40.003Z,20.33
2018-03-20T02:10:06.240Z,18.50
2018-03-20T02:12:32.417Z,17.75
2018-03-20T02:14:58.610Z,17.45
2018-03-20T02:17:24.809Z,18.00
2018-03-20T02:19:51.027Z,16.30
2018-03-20T02:22:17.290Z,18.70
2018-03-20T02:24:43.480Z,17.90
2018-03-20T02:27:09.659Z,18.08
2018-03-20T02:29:35.854Z,19.35
2018-03-20T02:32:02.834Z,17.67
2018-03-20T02:34:29.011Z,18.30
2018-03-20T02:36:55.939Z,20.00
2018-03-20T02:39:22.133Z,18.58
2018-03-20T02:41:48.345Z,17.90
2018-03-20T02:44:14.503Z,19.73
2018-03-20T02:46:40.759Z,18.70
2018-03-20T02:49:06.991Z,17.40
2018-03-20T02:51:33.913Z,17.52
2018-03-20T02:54:00.157Z,19.87
2018-03-20T02:56:26.399Z,19.80
2018-03-20T02:58:53.341Z,19.92
2018-03-20T03:01:20.261Z,19.17
2018-03-20T03:03:46.456Z,21.48
2018-03-20T03:06:12.754Z,19.25
2018-03-20T03:08:38.966Z,18.27
2018-03-20T03:11:05.119Z,19.20
2018-03-20T03:13:31.355Z,19.08
2018-03-20T03:15:57.539Z,18.12
2018-03-20T03:18:24.517Z,18.35
2018-03-20T03:20:50.689Z,19.45
2018-03-20T03:23:16.898Z,19.73
2018-03-20T03:25:43.086Z,19.77
2018-03-20T03:28:10.043Z,19.45
2018-03-20T03:30:36.249Z,19.95
2018-03-20T03:33:03.251Z,19.40
2018-03-20T03:35:29.468Z,18.85
2018-03-20T03:37:55.699Z,18.65
2018-03-20T03:40:21.859Z,18.02
2018-03-20T03:42:48.161Z,19.10
2018-03-20T03:45:14.345Z,16.80
2018-03-20T03:47:40.556Z,17.45
2018-03-20T03:50:07.488Z,19.25
2018-03-20T03:52:33.670Z,18.70
2018-03-20T03:54:59.956Z,19.33
2018-03-20T03:57:26.955Z,16.73
2018-03-20T03:59:53.178Z,18.77
2018-03-20T04:02:19.379Z,17.55
2018-03-20T04:04:45.605Z,19.37
2018-03-20T04:07:11.840Z,18.70
2018-03-20T04:09:38.093Z,18.67
2018-03-20T04:12:04.359Z,19.37
2018-03-20T04:14:31.337Z,18.40
2018-03-20T04:16:57.528Z,19.35
2018-03-20T04:19:23.718Z,19.05
2018-03-20T04:21:49.962Z,19.80
2018-03-20T04:24:16.211Z,18.50
2018-03-20T04:26:42.481Z,18.83
2018-03-20T04:29:08.724Z,18.42
2018-03-20T04:31:34.903Z,19.40
2018-03-20T04:34:01.868Z,18.80
2018-03-20T04:36:28.128Z,19.20
2018-03-20T04:38:54.301Z,18.50
2018-03-20T04:41:21.287Z,18.00
2018-03-20T04:43:47.488Z,18.15
2018-03-20T04:46:14.421Z,17.48
2018-03-20T04:48:41.367Z,17.98
2018-03-20T04:51:08.323Z,17.30
2018-03-20T04:53:35.243Z,16.62
2018-03-20T04:56:01.446Z,20.48
2018-03-20T04:58:27.634Z,19.23
2018-03-20T05:00:53.804Z,19.98
2018-03-20T05:03:20.013Z,18.95
2018-03-20T05:05:46.308Z,18.37
2018-03-20T05:08:13.254Z,19.77
2018-03-20T05:10:39.469Z,19.12
2018-03-20T05:13:06.425Z,18.95
2018-03-20T05:15:33.416Z,19.10
2018-03-20T05:17:59.669Z,18.92
2018-03-20T05:20:31.952Z,19.60
2018-03-20T05:26:01.700Z,19.80
2018-03-20T05:28:27.956Z,20.08
2018-03-20T05:30:54.190Z,20.35
2018-03-20T05:33:20.446Z,18.92
2018-03-20T05:35:46.700Z,20.45
2018-03-20T05:38:13.636Z,19.42
2018-03-20T05:40:39.845Z,20.92
2018-03-20T05:43:06.078Z,19.73
2018-03-20T05:45:32.295Z,22.20
2018-03-20T05:48:04.609Z,20.83
2018-03-20T05:50:51.727Z,22.83
2018-03-20T05:53:18.683Z,22.92
2018-03-20T05:55:44.881Z,20.17
2018-03-20T05:58:11.904Z,24.08
2018-03-20T06:00:38.065Z,23.87
2018-03-20T06:03:04.246Z,25.48
2018-03-20T06:05:30.427Z,23.00
2018-03-20T06:07:57.381Z,25.75
2018-03-20T06:10:23.560Z,24.73
2018-03-20T06:12:49.748Z,27.08
2018-03-20T06:15:15.917Z,25.30
2018-03-20T06:17:42.103Z,28.00
2018-03-20T06:20:08.298Z,25.88
2018-03-20T06:22:35.303Z,25.80
2018-03-20T06:25:01.480Z,28.67
2018-03-20T06:27:27.776Z,28.35
2018-03-20T06:29:54.045Z,28.42
2018-03-20T06:32:20.244Z,26.30
2018-03-20T06:34:46.490Z,29.27
2018-03-20T06:37:12.676Z,26.60
2018-03-20T06:39:38.888Z,29.17
2018-03-20T06:42:05.059Z,27.55
2018-03-20T06:44:31.262Z,27.30
2018-03-20T06:46:57.633Z,27.30
2018-03-20T06:49:24.048Z,25.40
2018-03-20T06:51:50.446Z,27.55
2018-03-20T06:54:16.880Z,26.08
2018-03-20T06:56:44.133Z,25.27
2018-03-20T06:59:10.589Z,26.65
2018-03-20T07:01:37.103Z,26.98
2018-03-20T07:04:04.248Z,27.77
2018-03-20T07:06:30.626Z,26.25
2018-03-20T07:08:57.078Z,25.90
2018-03-20T07:11:23.554Z,25.35
2018-03-20T07:13:49.968Z,26.20
2018-03-20T07:16:16.403Z,25.70
2018-03-20T07:18:43.551Z,26.12
2018-03-20T07:21:09.970Z,25.10
2018-03-20T07:23:36.375Z,24.83
2018-03-20T07:26:02.821Z,25.77
2018-03-20T07:28:29.296Z,26.70
2018-03-20T07:30:56.465Z,24.60
2018-03-20T07:33:22.956Z,24.83
2018-03-20T07:35:49.336Z,25.92
2018-03-20T07:38:15.771Z,23.67
2018-03-20T07:40:42.186Z,24.75
2018-03-20T07:43:08.671Z,23.77
2018-03-20T07:45:35.102Z,22.10
2018-03-20T07:48:01.577Z,23.40
2018-03-20T07:50:28.042Z,23.45
2018-03-20T07:52:54.476Z,21.95
2018-03-20T07:55:20.960Z,22.37
2018-03-20T07:57:48.117Z,21.87
2018-03-20T08:00:15.267Z,19.30
2018-03-20T08:02:42.154Z,22.40
2018-03-20T08:05:08.569Z,21.23
2018-03-20T08:07:34.983Z,21.87
2018-03-20T08:10:01.421Z,21.67
2018-03-20T08:12:27.826Z,23.77
2018-03-20T08:14:54.234Z,20.75
2018-03-20T08:17:20.673Z,21.60
2018-03-20T08:19:47.058Z,22.55
2018-03-20T08:22:13.542Z,21.12
2018-03-20T08:24:39.956Z,20.60
2018-03-20T08:27:06.422Z,19.92
2018-03-20T08:29:32.842Z,20.25
2018-03-20T08:31:59.244Z,21.12
2018-03-20T08:34:25.651Z,21.42
2018-03-20T08:36:52.092Z,21.45
2018-03-20T08:39:18.558Z,21.60
2018-03-20T08:41:45.080Z,21.98
2018-03-20T08:44:11.541Z,19.55
2018-03-20T08:46:38.010Z,19.62
2018-03-20T08:49:04.494Z,21.37
2018-03-20T08:51:30.909Z,20.25
2018-03-20T08:53:57.375Z,21.23
2018-03-20T08:56:24.577Z,21.23
2018-03-20T08:58:50.973Z,18.98
2018-03-20T09:01:17.390Z,18.77
2018-03-20T09:03:43.864Z,19.52
2018-03-20T09:06:10.351Z,19.08
2018-03-20T09:08:36.779Z,20.92
2018-03-20T09:11:03.191Z,19.35
2018-03-20T09:13:29.561Z,18.60
2018-03-20T09:15:56.022Z,17.87
2018-03-20T09:18:22.455Z,19.87
2018-03-20T09:20:48.895Z,20.33
2018-03-20T09:23:15.362Z,19.17
2018-03-20T09:25:41.787Z,18.02
2018-03-20T09:28:08.233Z,18.65
2018-03-20T09:30:34.584Z,18.30
2018-03-20T09:33:01.722Z,17.35
2018-03-20T09:35:28.198Z,18.23
2018-03-20T09:37:54.622Z,17.75
2018-03-20T09:40:21.087Z,19.27
2018-03-20T09:42:47.511Z,16.33
2018-03-20T09:45:13.896Z,18.48
2018-03-20T09:47:40.284Z,17.40
2018-03-20T09:50:06.721Z,17.70
2018-03-20T09:52:33.198Z,18.75
2018-03-20T09:54:59.542Z,18.08
2018-03-20T09:57:25.973Z,17.65
2018-03-20T09:59:52.429Z,17.92
2018-03-20T10:02:18.861Z,17.17
2018-03-20T10:04:45.302Z,16.92
2018-03-20T10:07:11.720Z,17.35
2018-03-20T10:09:38.155Z,16.40
2018-03-20T10:12:05.340Z,17.35
2018-03-20T10:14:31.758Z,17.23
2018-03-20T10:16:58.233Z,18.52
2018-03-20T10:19:24.584Z,17.83
2018-03-20T10:21:51.708Z,17.30
2018-03-20T10:24:18.188Z,17.55
2018-03-20T10:26:44.581Z,17.85
2018-03-20T10:29:10.982Z,18.55
2018-03-20T10:31:37.458Z,18.20
2018-03-20T10:34:04.634Z,17.33
2018-03-20T10:36:31.084Z,18.27
2018-03-20T10:38:57.514Z,17.15
2018-03-20T10:41:23.909Z,17.92
2018-03-20T10:43:50.342Z,16.30
2018-03-20T10:46:17.480Z,15.95
2018-03-20T10:48:43.887Z,17.37
2018-03-20T10:51:10.306Z,18.25
2018-03-20T10:53:36.736Z,16.23
2018-03-20T10:56:03.144Z,17.40
2018-03-20T10:58:29.621Z,16.30
2018-03-20T11:01:02.159Z,15.05
2018-03-20T11:03:28.596Z,15.73
2018-03-20T11:05:55.122Z,15.30
2018-03-20T11:08:21.380Z,16.52
2018-03-20T11:10:47.560Z,14.85
2018-03-20T11:13:13.772Z,15.35
2018-03-20T11:15:39.994Z,12.75
2018-03-20T11:18:06.241Z,12.45
2018-03-20T11:20:32.480Z,11.20
2018-03-20T11:22:58.708Z,11.05
2018-03-20T11:25:24.945Z,12.20
2018-03-20T11:27:51.153Z,12.48
2018-03-20T11:30:17.376Z,9.77
2018-03-20T11:32:43.634Z,11.10
2018-03-20T11:35:10.574Z,9.75
2018-03-20T11:37:37.585Z,11.95
2018-03-20T11:40:03.822Z,12.15
2018-03-20T11:42:29.987Z,10.73
2018-03-20T11:44:56.908Z,11.85
2018-03-20T11:47:23.114Z,12.13
2018-03-20T11:49:49.299Z,11.55
2018-03-20T11:52:15.514Z,11.00
2018-03-20T11:54:42.469Z,10.90
2018-03-20T11:57:08.722Z,10.25
2018-03-20T11:59:34.935Z,9.23
2018-03-20T12:02:01.145Z,9.55
2018-03-20T12:04:28.120Z,9.65
2018-03-20T12:06:54.331Z,8.25
2018-03-20T12:09:32.699Z,9.27
2018-03-20T12:11:58.930Z,8.50
2018-03-20T12:14:25.112Z,7.40
2018-03-20T12:16:52.121Z,8.82
2018-03-20T12:19:19.084Z,8.73
2018-03-20T12:21:45.305Z,7.03
2018-03-20T12:24:12.274Z,8.30
2018-03-20T12:26:38.468Z,10.00
2018-03-20T12:29:05.437Z,7.65
2018-03-20T12:31:31.652Z,8.10
2018-03-20T12:33:57.858Z,7.65
2018-03-20T12:36:24.821Z,6.20
2018-03-20T12:38:51.839Z,7.30
2018-03-20T12:41:18.072Z,7.05
2018-03-20T12:43:44.247Z,6.25
2018-03-20T12:46:10.453Z,5.25
2018-03-20T12:48:37.362Z,5.75
2018-03-20T12:51:03.578Z,5.90
2018-03-20T12:53:29.785Z,6.60
2018-03-20T12:55:56.016Z,7.35
2018-03-20T12:58:22.258Z,7.25
2018-03-20T13:00:48.519Z,8.27
2018-03-20T13:03:14.775Z,7.75
2018-03-20T13:05:41.229Z,9.15
2018-03-20T13:08:08.412Z,7.68
2018-03-20T13:10:34.833Z,8.43
2018-03-20T13:13:02.058Z,7.28
2018-03-20T13:15:29.256Z,9.15
2018-03-20T13:17:55.759Z,8.10
2018-03-20T13:20:22.201Z,8.40
2018-03-20T13:22:48.623Z,7.87
2018-03-20T13:25:15.819Z,8.88
2018-03-20T13:27:42.227Z,8.60
2018-03-20T13:30:08.778Z,8.70
2018-03-20T13:32:35.174Z,7.90
2018-03-20T13:35:02.343Z,8.07
2018-03-20T13:37:28.642Z,9.63
2018-03-20T13:39:54.921Z,8.52
2018-03-20T13:42:21.132Z,10.25
2018-03-20T13:44:47.348Z,8.35
2018-03-20T13:47:13.561Z,9.07
2018-03-20T13:49:39.753Z,7.57
2018-03-20T13:52:06.081Z,9.35
2018-03-20T13:54:32.274Z,11.40
2018-03-20T13:56:58.536Z,9.18
2018-03-20T13:59:24.745Z,9.77
2018-03-20T14:01:51.691Z,9.40
2018-03-20T14:04:18.723Z,10.18
2018-03-20T14:06:44.993Z,9.57
2018-03-20T14:09:11.220Z,10.82
2018-03-20T14:11:37.384Z,14.48
2018-03-20T14:14:03.599Z,14.90
2018-03-20T14:16:29.845Z,10.07
2018-03-20T14:18:56.020Z,15.77
2018-03-20T14:21:22.951Z,15.50
2018-03-20T14:23:49.914Z,8.98
2018-03-20T14:26:16.109Z,7.25
2018-03-20T14:28:42.349Z,9.27
2018-03-20T14:31:09.429Z,8.32
2018-03-20T14:33:35.775Z,8.63
2018-03-20T14:36:02.898Z,9.13
2018-03-20T14:38:29.298Z,7.47
2018-03-20T14:40:55.652Z,9.02
2018-03-20T14:43:22.058Z,7.40
2018-03-20T14:45:48.482Z,8.52
2018-03-20T14:48:14.916Z,9.13
2018-03-20T14:50:41.303Z,8.90
2018-03-20T14:53:07.733Z,8.25
2018-03-20T14:55:34.295Z,8.90
2018-03-20T14:58:00.760Z,9.18
2018-03-20T15:00:27.255Z,10.27
2018-03-20T15:02:54.453Z,9.38
2018-03-20T15:05:20.912Z,10.25
2018-03-20T15:07:47.264Z,8.65
2018-03-20T15:10:14.475Z,9.77
2018-03-20T15:12:40.911Z,10.88
2018-03-20T15:15:07.146Z,10.55
2018-03-20T15:17:33.424Z,10.77
2018-03-20T15:19:59.644Z,9.52
2018-03-20T15:22:25.847Z,9.57
2018-03-20T15:24:52.059Z,10.30
2018-03-20T15:27:18.277Z,13.20
2018-03-20T15:29:45.242Z,11.30
2018-03-20T15:32:11.480Z,10.00
2018-03-20T15:34:37.767Z,9.82
2018-03-20T15:37:04.841Z,11.55
2018-03-20T15:39:31.051Z,11.27
2018-03-20T15:41:57.989Z,11.50
2018-03-20T15:44:24.897Z,9.50
2018-03-20T15:46:51.092Z,10.43
2018-03-20T15:49:17.312Z,10.80
2018-03-20T15:51:43.540Z,10.52
2018-03-20T15:54:09.836Z,10.52
2018-03-20T15:56:36.029Z,9.98
2018-03-20T15:59:02.273Z,11.32
2018-03-20T16:01:28.472Z,9.80
2018-03-20T16:03:54.789Z,10.13
2018-03-20T16:06:21.036Z,11.27
2018-03-20T16:08:47.209Z,12.63
2018-03-20T16:11:14.176Z,12.88
2018-03-20T16:13:40.353Z,12.20
2018-03-20T16:16:06.536Z,13.05
2018-03-20T16:18:32.864Z,10.40
2018-03-20T16:20:59.064Z,11.10
2018-03-20T16:23:25.993Z,10.95
2018-03-20T16:25:52.223Z,12.05
2018-03-20T16:28:18.470Z,11.45
2018-03-20T16:30:45.484Z,11.18
2018-03-20T16:33:11.713Z,11.27
2018-03-20T16:35:37.891Z,11.93
2018-03-20T16:38:04.115Z,10.93
2018-03-20T16:40:30.295Z,12.27
2018-03-20T16:42:56.522Z,12.13
2018-03-20T16:45:22.694Z,11.52
2018-03-20T16:47:48.915Z,13.10
2018-03-20T16:50:15.852Z,11.75
2018-03-20T16:52:42.801Z,11.77
2018-03-20T16:55:09.766Z,12.52
2018-03-20T16:57:35.920Z,12.98
2018-03-20T17:00:02.203Z,12.55
2018-03-20T17:02:29.189Z,13.32
2018-03-20T17:04:55.413Z,13.65
2018-03-20T17:07:21.686Z,11.90
2018-03-20T17:09:47.912Z,12.30
2018-03-20T17:12:14.056Z,14.00
2018-03-20T17:14:41.014Z,12.57
2018-03-20T17:17:07.950Z,14.32
2018-03-20T17:19:34.215Z,13.60
2018-03-20T17:22:00.388Z,13.73
2018-03-20T17:24:26.568Z,13.02
2018-03-20T17:26:52.776Z,13.95
2018-03-20T17:29:18.993Z,14.98
2018-03-20T17:31:45.961Z,14.68
2018-03-20T17:34:12.157Z,14.15
2018-03-20T17:36:39.099Z,14.82
2018-03-20T17:39:06.022Z,15.73
2018-03-20T17:41:32.216Z,13.77
2018-03-20T17:43:58.400Z,13.95
2018-03-20T17:46:24.612Z,14.60
2018-03-20T17:48:50.829Z,14.30
2018-03-20T17:51:17.000Z,14.80
2018-03-20T17:53:43.163Z,16.77
2018-03-20T17:56:09.389Z,15.88
2018-03-20T17:58:35.614Z,15.02
2018-03-20T18:01:01.864Z,14.70
2018-03-20T18:03:28.096Z,17.20
2018-03-20T18:05:54.421Z,17.62
2018-03-20T18:08:20.605Z,16.27
2018-03-20T18:10:46.796Z,17.48
2018-03-20T18:13:13.766Z,17.37
2018-03-20T18:15:40.032Z,16.15
2018-03-20T18:18:06.232Z,16.45
2018-03-20T18:20:32.403Z,15.75
2018-03-20T18:22:58.658Z,17.10
2018-03-20T18:25:24.826Z,17.02
2018-03-20T18:27:51.001Z,17.35
2018-03-20T18:30:17.930Z,18.02
2018-03-20T18:32:44.130Z,17.75
2018-03-20T18:35:10.313Z,17.35
2018-03-20T18:37:36.519Z,17.73
2018-03-20T18:40:02.716Z,19.37
2018-03-20T18:42:28.912Z,17.92
2018-03-20T18:44:55.084Z,18.85
2018-03-20T18:47:21.329Z,18.73
2018-03-20T18:49:47.495Z,17.90
2018-03-20T18:52:13.744Z,19.77
2018-03-20T18:54:39.982Z,19.90
2018-03-20T18:57:06.210Z,18.90
2018-03-20T18:59:32.429Z,20.98
2018-03-20T19:01:58.624Z,21.05
2018-03-20T19:04:24.798Z,21.98
2018-03-20T19:06:51.053Z,21.77
2018-03-20T19:09:18.037Z,23.55
2018-03-20T19:11:44.257Z,21.67
2018-03-20T19:14:10.423Z,22.10
2018-03-20T19:16:36.619Z,21.92
2018-03-20T19:19:02.811Z,21.70
2018-03-20T19:21:29.037Z,23.90
2018-03-20T19:23:56.006Z,22.87
2018-03-20T19:26:22.228Z,23.45
2018-03-20T19:28:48.444Z,26.42
2018-03-20T19:31:15.363Z,24.10
2018-03-20T19:33:41.555Z,25.00
2018-03-20T19:36:07.773Z,25.70
2018-03-20T19:38:33.919Z,26.20
2018-03-20T19:41:00.178Z,24.77
2018-03-20T19:43:26.366Z,25.00
2018-03-20T19:45:52.556Z,24.98
2018-03-20T19:48:19.558Z,26.00
2018-03-20T19:50:45.813Z,25.52
2018-03-20T19:53:12.739Z,25.75
2018-03-20T19:55:38.965Z,24.90
2018-03-20T19:58:05.243Z,24.23
2018-03-20T20:00:31.444Z,23.87
2018-03-20T20:02:58.412Z,24.80
2018-03-20T20:05:24.604Z,22.85
2018-03-20T20:07:50.779Z,24.70
2018-03-20T20:10:17.035Z,23.20
2018-03-20T20:12:43.217Z,24.35
2018-03-20T20:15:09.378Z,22.48
2018-03-20T20:17:35.609Z,22.35
2018-03-20T20:20:01.924Z,22.52
2018-03-20T20:22:28.124Z,23.95
2018-03-20T20:24:55.062Z,22.23
2018-03-20T20:27:21.306Z,22.33
2018-03-20T20:29:47.516Z,24.90
2018-03-20T20:32:14.490Z,23.50
2018-03-20T20:34:40.735Z,24.58
2018-03-20T20:37:06.901Z,22.25
2018-03-20T20:39:33.862Z,20.90
2018-03-20T20:42:00.849Z,22.75
2018-03-20T20:44:27.092Z,23.30
2018-03-20T20:46:53.392Z,23.00
2018-03-20T20:49:19.668Z,21.40
2018-03-20T20:51:45.853Z,21.80
2018-03-20T20:54:12.133Z,22.27
2018-03-20T20:56:39.153Z,21.58
2018-03-20T20:59:05.432Z,21.85
2018-03-20T21:01:31.655Z,29.73
2018-03-20T21:03:58.670Z,25.73
2018-03-20T21:06:24.917Z,20.98
2018-03-20T21:08:51.864Z,19.33
2018-03-20T21:11:18.798Z,19.75
2018-03-20T21:13:45.037Z,19.83
2018-03-20T21:16:11.994Z,19.55
2018-03-20T21:18:39.049Z,18.30
2018-03-20T21:21:05.324Z,18.45
2018-03-20T21:23:31.561Z,16.70
2018-03-20T21:25:57.825Z,18.23
2018-03-20T21:28:24.760Z,17.85
2018-03-20T21:30:51.737Z,17.50
2018-03-20T21:33:17.966Z,15.85
2018-03-20T21:35:44.163Z,16.80
2018-03-20T21:38:11.144Z,14.93
2018-03-20T21:40:37.377Z,15.45
2018-03-20T21:43:03.653Z,16.20
2018-03-20T21:45:29.891Z,16.83
2018-03-20T21:47:56.805Z,15.60
2018-03-20T21:50:23.028Z,14.43
2018-03-20T21:52:49.244Z,16.30
2018-03-20T21:55:15.429Z,14.55
2018-03-20T21:57:42.346Z,13.23
2018-03-20T22:00:08.665Z,14.13
2018-03-20T22:02:34.833Z,15.55
2018-03-20T22:05:01.023Z,13.45
2018-03-20T22:07:27.230Z,12.48
2018-03-20T22:09:53.397Z,13.30
2018-03-20T22:12:20.342Z,12.75
2018-03-20T22:14:47.240Z,11.82
2018-03-20T22:17:13.420Z,10.35
2018-03-20T22:19:40.361Z,14.00
2018-03-20T22:22:07.288Z,13.60
2018-03-20T22:24:33.448Z,12.65
2018-03-20T22:26:59.690Z,13.05
2018-03-20T22:29:25.951Z,14.07
2018-03-20T22:31:52.179Z,15.10
2018-03-20T22:34:18.371Z,17.12
2018-03-20T22:36:44.568Z,13.40
2018-03-20T22:39:11.536Z,15.90
2018-03-20T22:41:37.773Z,15.93
2018-03-20T22:44:03.969Z,15.63
2018-03-20T22:46:30.927Z,13.98
2018-03-20T22:48:57.850Z,13.48
2018-03-20T22:51:24.054Z,13.38
2018-03-20T22:53:51.100Z,12.68
2018-03-20T22:56:17.652Z,13.23
2018-03-20T22:58:43.863Z,12.88
2018-03-20T23:01:10.052Z,13.77
2018-03-20T23:03:36.228Z,13.50
2018-03-20T23:06:02.464Z,14.20
2018-03-20T23:08:28.652Z,13.05
2018-03-20T23:10:54.815Z,13.52
2018-03-20T23:13:21.024Z,13.15
2018-03-20T23:15:47.242Z,13.80
2018-03-20T23:18:13.426Z,13.32
2018-03-20T23:20:39.615Z,14.00
2018-03-20T23:23:05.845Z,13.52
2018-03-20T23:25:32.055Z,13.52
2018-03-20T23:27:58.236Z,13.15
2018-03-20T23:30:24.491Z,14.75
2018-03-20T23:32:50.719Z,14.07
2018-03-20T23:35:16.917Z,13.93
2018-03-20T23:37:43.132Z,14.52
2018-03-20T23:40:09.354Z,14.27
2018-03-20T23:42:36.319Z,14.45
2018-03-20T23:45:02.553Z,14.25
2018-03-20T23:47:28.746Z,15.23
2018-03-20T23:49:55.666Z,15.57
2018-03-20T23:52:21.894Z,16.58
2018-03-20T23:54:48.081Z,19.25
2018-03-20T23:57:14.294Z,16.33
2018-03-20T23:59:40.494Z,15.07
